createdAt,value
2018-12-02T00:01:19.672Z,99781.84
2018-12-02T00:03:48.502Z,99789.69
2018-12-02T00:06:16.992Z,99777.55
2018-12-02T00:08:45.430Z,99786.61
2018-12-02T00:11:13.916Z,99768.00
2018-12-02T00:16:38.216Z,99773.92
2018-12-02T00:19:06.643Z,99773.05
2018-12-02T00:21:38.158Z,99769.53
2018-12-02T00:24:06.629Z,99761.69
2018-12-02T00:26:35.057Z,99758.59
2018-12-02T00:29:03.527Z,99746.79
2018-12-02T00:31:32.109Z,99735.59
2018-12-02T00:34:00.612Z,99734.55
2018-12-02T00:36:29.063Z,99735.82
2018-12-02T00:38:57.591Z,99730.59
2018-12-02T00:41:26.351Z,99721.39
2018-12-02T00:43:59.786Z,99714.85
2018-12-02T00:46:28.209Z,99710.06
2018-12-02T00:48:59.188Z,99713.14
2018-12-02T00:51:27.723Z,99703.11
2018-12-02T00:54:01.144Z,99700.09
2018-12-02T00:56:32.556Z,99708.34
2018-12-02T00:59:00.991Z,99704.02
2018-12-02T01:01:29.469Z,99696.14
2018-12-02T01:03:58.063Z,99694.83
2018-12-02T01:06:26.867Z,99690.44
2018-12-02T01:11:39.957Z,99690.91
2018-12-02T01:14:15.383Z,99686.51
2018-12-02T01:19:17.579Z,99688.22
2018-12-02T01:21:46.136Z,99673.90
2018-12-02T01:24:18.588Z,99671.69
2018-12-02T01:26:47.218Z,99675.10
2018-12-02T01:29:20.648Z,99678.12
2018-12-02T01:31:49.087Z,99665.47
2018-12-02T01:34:17.624Z,99665.03
2018-12-02T01:36:46.116Z,99664.63
2018-12-02T01:39:14.546Z,99656.71
2018-12-02T01:41:43.616Z,99644.10
2018-12-02T01:44:12.047Z,99649.27
2018-12-02T01:46:40.625Z,99640.98
2018-12-02T01:49:09.052Z,99645.27
2018-12-02T01:51:37.531Z,99642.69
2018-12-02T01:54:06.287Z,99641.73
2018-12-02T01:56:34.736Z,99632.58
2018-12-02T01:59:03.279Z,99621.71
2018-12-02T02:01:31.792Z,99618.98
2018-12-02T02:04:00.386Z,99620.29
2018-12-02T02:06:28.803Z,99617.23
2018-12-02T02:08:57.321Z,99608.00
2018-12-02T02:11:26.060Z,99608.08
2018-12-02T02:13:54.474Z,99611.13
2018-12-02T02:16:22.951Z,99604.70
2018-12-02T02:18:51.391Z,99594.75
2018-12-02T02:21:24.051Z,99597.41
2018-12-02T02:23:52.539Z,99585.91
2018-12-02T02:26:20.938Z,99592.73
2018-12-02T02:28:52.694Z,99595.34
2018-12-02T02:31:21.121Z,99598.43
2018-12-02T02:33:53.743Z,99589.35
2018-12-02T02:36:22.164Z,99592.88
2018-12-02T02:38:51.443Z,99587.25
2018-12-02T02:41:19.865Z,99582.92
2018-12-02T02:43:48.578Z,99584.27
2018-12-02T02:46:21.138Z,99578.64
2018-12-02T02:48:51.428Z,99573.52
2018-12-02T02:51:20.481Z,99567.50
2018-12-02T02:53:48.927Z,99573.64
2018-12-02T02:56:17.495Z,99570.27
2018-12-02T02:58:46.051Z,99573.39
2018-12-02T03:01:14.447Z,99560.87
2018-12-02T03:03:42.892Z,99562.72
2018-12-02T03:06:11.323Z,99550.66
2018-12-02T03:08:39.783Z,99554.59
2018-12-02T03:11:12.107Z,99552.48
2018-12-02T03:13:42.458Z,99539.92
2018-12-02T03:16:21.796Z,99540.47
2018-12-02T03:18:50.242Z,99542.69
2018-12-02T03:21:23.755Z,99533.57
2018-12-02T03:23:58.808Z,99534.05
2018-12-02T03:26:27.209Z,99531.87
2018-12-02T03:29:00.541Z,99525.77
2018-12-02T03:31:44.036Z,99527.00
2018-12-02T03:34:12.443Z,99519.98
2018-12-02T03:36:45.635Z,99516.43
2018-12-02T03:39:14.059Z,99508.63
2018-12-02T03:41:42.480Z,99507.28
2018-12-02T03:44:17.613Z,99507.67
2018-12-02T03:46:45.991Z,99495.47
2018-12-02T03:49:14.415Z,99499.80
2018-12-02T03:51:42.827Z,99494.09
2018-12-02T03:54:11.306Z,99486.25
2018-12-02T03:56:39.842Z,99485.73
2018-12-02T03:59:08.270Z,99478.88
2018-12-02T04:01:36.683Z,99484.14
2018-12-02T04:04:05.292Z,99466.00
2018-12-02T04:06:38.637Z,99471.62
2018-12-02T04:09:09.574Z,99461.72
2018-12-02T04:11:38.635Z,99459.97
2018-12-02T04:14:07.338Z,99455.61
2018-12-02T04:16:39.641Z,99441.79
2018-12-02T04:19:08.046Z,99449.52
2018-12-02T04:21:36.523Z,99450.42
2018-12-02T04:24:05.383Z,99439.17
2018-12-02T04:26:34.134Z,99444.25
2018-12-02T04:29:07.521Z,99432.69
2018-12-02T04:31:36.003Z,99435.65
2018-12-02T04:34:04.813Z,99438.27
2018-12-02T04:36:33.236Z,99432.33
2018-12-02T04:39:01.808Z,99433.70
2018-12-02T04:44:10.835Z,99422.78
2018-12-02T04:46:39.236Z,99420.56
2018-12-02T04:49:07.673Z,99422.34
2018-12-02T04:51:36.189Z,99416.24
2018-12-02T04:54:24.634Z,99416.24
2018-12-02T04:56:53.134Z,99410.70
2018-12-02T04:59:21.564Z,99406.42
2018-12-02T05:01:50.176Z,99402.14
2018-12-02T05:05:33.234Z,99404.64
2018-12-02T05:08:01.648Z,99395.09
2018-12-02T05:10:30.039Z,99384.24
2018-12-02T05:13:03.493Z,99374.70
2018-12-02T05:15:31.937Z,99357.83
2018-12-02T05:18:00.523Z,99361.35
2018-12-02T05:20:28.899Z,99358.85
2018-12-02T05:22:57.370Z,99360.59
2018-12-02T05:25:25.885Z,99354.94
2018-12-02T05:27:54.479Z,99348.44
2018-12-02T05:30:23.979Z,99349.28
2018-12-02T05:32:53.589Z,99347.09
2018-12-02T05:35:28.574Z,99341.52
2018-12-02T05:37:57.056Z,99340.56
2018-12-02T05:40:25.442Z,99334.07
2018-12-02T05:43:00.630Z,99323.22
2018-12-02T05:45:29.098Z,99324.88
2018-12-02T05:47:57.539Z,99317.88
2018-12-02T05:50:26.380Z,99320.09
2018-12-02T05:52:58.912Z,99320.53
2018-12-02T05:55:34.507Z,99322.70
2018-12-02T05:58:03.140Z,99317.04
2018-12-02T06:00:31.566Z,99320.48
2018-12-02T06:03:00.023Z,99324.41
2018-12-02T06:05:28.458Z,99330.11
2018-12-02T06:07:56.905Z,99327.49
2018-12-02T06:10:25.434Z,99324.37
2018-12-02T06:12:54.205Z,99319.98
2018-12-02T06:15:22.814Z,99316.45
2018-12-02T06:17:51.260Z,99306.98
2018-12-02T06:20:25.685Z,99302.59
2018-12-02T06:22:56.347Z,99303.90
2018-12-02T06:25:24.857Z,99292.61
2018-12-02T06:27:53.338Z,99293.00
2018-12-02T06:30:23.745Z,99286.00
2018-12-02T06:33:00.106Z,99291.19
2018-12-02T06:35:28.750Z,99281.64
2018-12-02T06:37:58.090Z,99290.04
2018-12-02T06:40:42.840Z,99281.77
2018-12-02T06:43:37.926Z,99283.47
2018-12-02T06:46:06.415Z,99284.70
2018-12-02T06:48:34.912Z,99279.47
2018-12-02T06:51:03.356Z,99273.33
2018-12-02T06:53:38.583Z,99279.30
2018-12-02T06:56:24.235Z,99276.17
2018-12-02T06:59:03.429Z,99278.78
2018-12-02T07:02:46.875Z,99275.56
2018-12-02T07:05:26.008Z,99284.20
2018-12-02T07:07:54.491Z,99280.67
2018-12-02T07:10:22.899Z,99268.78
2018-12-02T07:12:51.616Z,99274.76
2018-12-02T07:15:20.091Z,99276.85
2018-12-02T07:17:51.476Z,99271.11
2018-12-02T07:20:23.834Z,99270.15
2018-12-02T07:22:58.688Z,99266.50
2018-12-02T07:25:29.738Z,99266.01
2018-12-02T07:27:58.214Z,99267.71
2018-12-02T07:30:26.699Z,99262.75
2018-12-02T07:32:55.183Z,99259.34
2018-12-02T07:35:23.651Z,99256.26
2018-12-02T07:37:54.574Z,99259.00
2018-12-02T07:40:28.071Z,99259.78
2018-12-02T07:42:56.556Z,99253.59
2018-12-02T07:45:24.982Z,99259.13
2018-12-02T07:47:53.446Z,99255.56
2018-12-02T07:50:21.890Z,99265.50
2018-12-02T07:52:50.410Z,99254.77
2018-12-02T07:57:52.869Z,99255.64
2018-12-02T08:00:21.342Z,99252.59
2018-12-02T08:02:49.827Z,99256.72
2018-12-02T08:05:18.659Z,99262.27
2018-12-02T08:07:48.583Z,99258.25
2018-12-02T08:10:19.741Z,99249.92
2018-12-02T08:12:52.513Z,99254.14
2018-12-02T08:15:21.121Z,99246.73
2018-12-02T08:17:52.460Z,99250.03
2018-12-02T08:20:20.889Z,99245.19
2018-12-02T08:22:51.505Z,99249.81
2018-12-02T08:25:18.967Z,99254.14
2018-12-02T08:27:51.018Z,99258.39
2018-12-02T08:30:24.679Z,99254.80
2018-12-02T08:32:53.597Z,99255.11
2018-12-02T08:35:36.117Z,99261.47
2018-12-02T08:38:07.311Z,99267.88
2018-12-02T08:40:39.843Z,99263.46
2018-12-02T08:43:08.862Z,99259.40
2018-12-02T08:45:38.056Z,99264.55
2018-12-02T08:48:06.242Z,99261.83
2018-12-02T08:50:34.819Z,99263.05
2018-12-02T08:53:03.484Z,99256.45
2018-12-02T08:55:32.033Z,99252.48
2018-12-02T08:58:00.465Z,99257.72
2018-12-02T09:00:30.842Z,99252.88
2018-12-02T09:03:00.785Z,99244.48
2018-12-02T09:05:33.230Z,99274.46
2018-12-02T09:08:02.161Z,99262.09
2018-12-02T09:10:31.768Z,99265.89
2018-12-02T09:13:03.772Z,99262.25
2018-12-02T09:15:32.230Z,99269.97
2018-12-02T09:18:10.708Z,99260.85
2018-12-02T09:20:39.134Z,99271.78
2018-12-02T09:23:09.619Z,99259.94
2018-12-02T09:25:38.106Z,99259.80
2018-12-02T09:28:14.731Z,99267.08
2018-12-02T09:30:43.117Z,99260.38
2018-12-02T09:33:11.551Z,99265.52
2018-12-02T09:35:41.138Z,99274.06
2018-12-02T09:38:09.643Z,99269.64
2018-12-02T09:40:38.094Z,99275.13
2018-12-02T09:43:07.177Z,99279.84
2018-12-02T09:45:35.771Z,99278.33
2018-12-02T09:48:04.376Z,99287.89
2018-12-02T09:50:41.568Z,99285.61
2018-12-02T09:55:46.818Z,99287.16
2018-12-02T10:03:01.390Z,99292.39
2018-12-02T10:05:30.624Z,99292.20
2018-12-02T10:07:58.994Z,99293.70
2018-12-02T10:10:27.443Z,99279.07
2018-12-02T10:13:02.375Z,99292.37
2018-12-02T10:15:35.784Z,99289.98
2018-12-02T10:18:04.223Z,99295.95
2018-12-02T10:20:32.743Z,99294.11
2018-12-02T10:23:01.154Z,99297.12
2018-12-02T10:25:29.599Z,99289.34
2018-12-02T10:27:58.068Z,99289.78
2018-12-02T10:30:26.763Z,99293.27
2018-12-02T10:32:56.277Z,99291.87
2018-12-02T10:35:24.729Z,99287.38
2018-12-02T10:37:53.910Z,99285.14
2018-12-02T10:40:23.382Z,99285.86
2018-12-02T10:42:52.654Z,99280.46
2018-12-02T10:45:24.024Z,99273.84
2018-12-02T10:47:53.963Z,99280.70
2018-12-02T10:50:25.787Z,99278.02
2018-12-02T10:52:56.287Z,99281.50
2018-12-02T10:55:42.972Z,99273.48
2018-12-02T10:58:15.854Z,99273.00
2018-12-02T11:00:49.819Z,99288.30
2018-12-02T11:03:18.233Z,99278.97
2018-12-02T11:05:47.056Z,99281.77
2018-12-02T11:08:31.280Z,99283.85
2018-12-02T11:10:59.757Z,99283.41
2018-12-02T11:16:36.031Z,99291.07
2018-12-02T11:19:07.513Z,99290.08
2018-12-02T11:21:42.770Z,99295.56
2018-12-02T11:24:11.200Z,99295.41
2018-12-02T11:26:45.114Z,99300.98
2018-12-02T11:29:13.751Z,99303.84
2018-12-02T11:31:46.562Z,99297.13
2018-12-02T11:34:15.130Z,99301.48
2018-12-02T11:36:43.666Z,99301.01
2018-12-02T11:39:12.171Z,99308.67
2018-12-02T11:41:40.703Z,99302.81
2018-12-02T11:44:09.131Z,99303.97
2018-12-02T11:46:45.594Z,99299.87
2018-12-02T11:49:14.066Z,99305.78
2018-12-02T11:51:42.474Z,99315.20
2018-12-02T11:54:11.092Z,99314.98
2018-12-02T11:56:39.525Z,99322.64
2018-12-02T11:59:07.962Z,99310.06
2018-12-02T12:01:38.440Z,99310.13
2018-12-02T12:04:06.961Z,99323.68
2018-12-02T12:06:35.565Z,99317.88
2018-12-02T12:09:05.062Z,99329.22
2018-12-02T12:11:38.444Z,99328.00
2018-12-02T12:14:09.943Z,99334.58
2018-12-02T12:16:39.558Z,99328.84
2018-12-02T12:19:08.909Z,99333.64
2018-12-02T12:21:39.502Z,99334.80
2018-12-02T12:24:08.026Z,99334.73
2018-12-02T12:26:36.567Z,99325.98
2018-12-02T12:31:49.488Z,99327.23
2018-12-02T12:34:17.959Z,99325.06
2018-12-02T12:36:46.392Z,99330.70
2018-12-02T12:39:18.773Z,99325.38
2018-12-02T12:41:47.379Z,99332.72
2018-12-02T12:44:15.817Z,99337.43
2018-12-02T12:46:44.275Z,99336.50
2018-12-02T12:49:17.114Z,99337.37
2018-12-02T12:51:45.589Z,99337.37
2018-12-02T12:54:18.891Z,99335.06
2018-12-02T12:56:57.278Z,99332.72
2018-12-02T12:59:25.739Z,99346.63
2018-12-02T13:01:54.232Z,99337.34
2018-12-02T13:04:22.757Z,99332.46
2018-12-02T13:06:51.560Z,99335.09
2018-12-02T13:09:20.225Z,99327.81
2018-12-02T13:11:58.705Z,99331.30
2018-12-02T13:14:27.254Z,99336.84
2018-12-02T13:16:55.791Z,99336.84
2018-12-02T13:19:24.415Z,99337.72
2018-12-02T13:22:23.669Z,99334.22
2018-12-02T13:24:52.237Z,99348.67
2018-12-02T13:27:20.764Z,99353.65
2018-12-02T13:29:49.265Z,99352.02
2018-12-02T13:35:03.921Z,99356.89
2018-12-02T13:37:32.379Z,99363.08
2018-12-02T13:40:00.848Z,99371.02
2018-12-02T13:42:29.280Z,99371.02
2018-12-02T13:44:57.878Z,99375.89
2018-12-02T13:47:26.508Z,99368.49
2018-12-02T13:49:59.074Z,99375.13
2018-12-02T13:52:27.526Z,99372.08
2018-12-02T13:54:57.981Z,99376.02
2018-12-02T13:57:30.626Z,99379.97
2018-12-02T14:00:03.523Z,99380.89
2018-12-02T14:02:32.387Z,99381.44
2018-12-02T14:05:00.809Z,99384.52
2018-12-02T14:07:29.298Z,99382.43
2018-12-02T14:09:57.829Z,99390.09
2018-12-02T14:12:26.502Z,99400.27
2018-12-02T14:17:31.533Z,99397.86
2018-12-02T14:20:00.028Z,99407.06
2018-12-02T14:22:29.421Z,99401.36
2018-12-02T14:25:02.824Z,99397.47
2018-12-02T14:27:26.495Z,99403.89
2018-12-02T14:29:56.913Z,99407.45
2018-12-02T14:32:26.641Z,99409.23
2018-12-02T14:34:55.336Z,99405.30
2018-12-02T14:37:23.979Z,99412.31
2018-12-02T14:39:52.659Z,99414.49
2018-12-02T14:42:21.170Z,99416.58
2018-12-02T14:44:49.687Z,99421.73
2018-12-02T14:47:18.160Z,99419.59
2018-12-02T14:49:49.583Z,99419.42
2018-12-02T14:52:18.074Z,99432.62
2018-12-02T14:54:46.513Z,99420.02
2018-12-02T14:57:15.004Z,99426.66
2018-12-02T14:59:43.487Z,99431.08
2018-12-02T15:02:28.009Z,99433.31
2018-12-02T15:04:56.635Z,99436.48
2018-12-02T15:07:25.087Z,99436.39
2018-12-02T15:09:57.872Z,99428.98
2018-12-02T15:12:26.336Z,99429.49
2018-12-02T15:14:54.950Z,99442.24
2018-12-02T15:17:28.281Z,99431.73
2018-12-02T15:19:56.915Z,99439.23
2018-12-02T15:22:25.321Z,99445.34
2018-12-02T15:24:56.168Z,99443.70
2018-12-02T15:27:24.726Z,99437.47
2018-12-02T15:29:53.318Z,99448.81
2018-12-02T15:32:21.775Z,99450.22
2018-12-02T15:34:50.428Z,99449.34
2018-12-02T15:37:18.863Z,99451.69
2018-12-02T15:39:47.415Z,99451.26
2018-12-02T15:42:16.001Z,99459.08
2018-12-02T15:44:44.414Z,99463.89
2018-12-02T15:47:12.904Z,99464.28
2018-12-02T15:49:43.207Z,99463.80
2018-12-02T15:52:11.652Z,99464.19
2018-12-02T15:54:40.204Z,99458.09
2018-12-02T15:57:08.699Z,99455.86
2018-12-02T15:59:37.158Z,99458.55
2018-12-02T16:02:06.019Z,99459.80
2018-12-02T16:04:34.463Z,99464.19
2018-12-02T16:07:03.287Z,99459.80
2018-12-02T16:09:31.963Z,99456.39
2018-12-02T16:12:00.486Z,99462.42
2018-12-02T16:14:29.256Z,99459.47
2018-12-02T16:16:57.864Z,99454.70
2018-12-02T16:19:26.392Z,99465.20
2018-12-02T16:21:54.965Z,99467.44
2018-12-02T16:24:23.587Z,99462.58
2018-12-02T16:26:52.228Z,99464.81
2018-12-02T16:29:20.796Z,99463.89
2018-12-02T16:31:49.331Z,99463.08
2018-12-02T16:34:17.879Z,99468.81
2018-12-02T16:36:46.322Z,99465.70
2018-12-02T16:39:15.226Z,99466.96
2018-12-02T16:41:47.862Z,99469.27
2018-12-02T16:44:16.319Z,99457.05
2018-12-02T16:46:44.892Z,99462.30
2018-12-02T16:49:13.402Z,99451.80
2018-12-02T16:51:41.936Z,99459.63
2018-12-02T16:54:10.446Z,99462.69
2018-12-02T16:56:39.162Z,99456.12
2018-12-02T16:59:19.280Z,99453.98
2018-12-02T17:01:52.208Z,99452.67
2018-12-02T17:04:23.957Z,99457.53
2018-12-02T17:06:52.635Z,99460.99
2018-12-02T17:09:23.009Z,99461.09
2018-12-02T17:14:59.927Z,99463.62
2018-12-02T17:17:28.388Z,99464.94
2018-12-02T17:19:57.515Z,99466.19
2018-12-02T17:22:26.073Z,99457.44
2018-12-02T17:24:54.590Z,99459.23
2018-12-02T17:27:23.019Z,99467.50
2018-12-02T17:29:51.573Z,99470.96
2018-12-02T17:32:20.857Z,99466.13
2018-12-02T17:34:49.326Z,99471.83
2018-12-02T17:37:17.800Z,99469.98
2018-12-02T17:39:49.038Z,99469.14
2018-12-02T17:42:22.402Z,99475.23
2018-12-02T17:44:51.010Z,99476.55
2018-12-02T17:47:19.606Z,99473.92
2018-12-02T17:49:48.374Z,99474.70
2018-12-02T17:52:16.974Z,99483.89
2018-12-02T17:54:45.576Z,99485.68
2018-12-02T17:57:14.590Z,99484.81
2018-12-02T17:59:43.240Z,99480.48
2018-12-02T18:02:12.697Z,99491.38
2018-12-02T18:04:41.210Z,99490.06
2018-12-02T18:07:09.611Z,99491.86
2018-12-02T18:09:38.166Z,99484.42
2018-12-02T18:12:07.134Z,99493.17
2018-12-02T18:14:37.621Z,99478.34
2018-12-02T18:17:06.296Z,99498.05
2018-12-02T18:19:35.153Z,99494.02
2018-12-02T18:22:03.758Z,99507.92
2018-12-02T18:24:33.152Z,99503.59
2018-12-02T18:27:32.479Z,99501.35
2018-12-02T18:30:01.058Z,99505.68
2018-12-02T18:32:30.344Z,99510.05
2018-12-02T18:34:59.068Z,99509.23
2018-12-02T18:37:27.602Z,99513.17
2018-12-02T18:40:01.403Z,99514.05
2018-12-02T18:45:03.587Z,99513.89
2018-12-02T18:47:32.067Z,99518.22
2018-12-02T18:50:02.126Z,99520.08
2018-12-02T18:52:30.606Z,99519.30
2018-12-02T18:54:59.217Z,99515.80
2018-12-02T18:57:27.737Z,99520.61
2018-12-02T18:59:56.249Z,99516.28
2018-12-02T19:02:30.617Z,99516.28
2018-12-02T19:04:59.173Z,99519.30
2018-12-02T19:07:32.650Z,99515.36
2018-12-02T19:10:01.254Z,99514.97
2018-12-02T19:12:29.718Z,99511.95
2018-12-02T19:14:58.282Z,99515.89
2018-12-02T19:17:35.651Z,99514.58
2018-12-02T19:20:09.024Z,99508.94
2018-12-02T19:22:38.552Z,99513.27
2018-12-02T19:28:01.862Z,99511.95
2018-12-02T19:30:33.004Z,99512.40
2018-12-02T19:32:58.858Z,99517.59
2018-12-02T19:35:29.763Z,99520.22
2018-12-02T19:38:01.331Z,99505.92
2018-12-02T19:40:29.818Z,99504.52
2018-12-02T19:42:58.314Z,99510.70
2018-12-02T19:45:26.946Z,99512.10
2018-12-02T19:47:55.530Z,99515.95
2018-12-02T19:50:25.950Z,99509.48
2018-12-02T19:52:54.519Z,99504.22
2018-12-02T19:55:23.056Z,99512.22
2018-12-02T19:57:51.847Z,99508.81
2018-12-02T20:00:27.061Z,99509.29
2018-12-02T20:02:55.934Z,99505.80
2018-12-02T20:08:37.930Z,99503.70
2018-12-02T20:11:06.429Z,99510.81
2018-12-02T20:13:45.764Z,99510.87
2018-12-02T20:16:19.761Z,99509.61
2018-12-02T20:18:48.539Z,99503.05
2018-12-02T20:21:18.279Z,99504.36
2018-12-02T20:23:56.100Z,99504.36
2018-12-02T20:26:25.415Z,99503.91
2018-12-02T20:28:58.056Z,99507.31
2018-12-02T20:31:28.195Z,99505.95
2018-12-02T20:33:56.755Z,99505.02
2018-12-02T20:36:25.653Z,99510.19
2018-12-02T20:38:54.299Z,99506.66
2018-12-02T20:41:23.593Z,99498.78
2018-12-02T20:43:52.238Z,99501.41
2018-12-02T20:46:20.867Z,99498.30
2018-12-02T20:48:49.376Z,99485.56
2018-12-02T20:51:18.019Z,99486.88
2018-12-02T20:53:46.483Z,99491.14
2018-12-02T20:56:15.032Z,99485.02
2018-12-02T20:58:43.528Z,99486.73
2018-12-02T21:01:12.214Z,99485.41
2018-12-02T21:03:46.856Z,99480.97
2018-12-02T21:06:16.825Z,99474.78
2018-12-02T21:08:45.406Z,99476.48
2018-12-02T21:11:14.079Z,99474.31
2018-12-02T21:13:42.564Z,99473.86
2018-12-02T21:16:11.135Z,99476.09
2018-12-02T21:18:39.651Z,99465.59
2018-12-02T21:21:28.011Z,99461.95
2018-12-02T21:23:56.514Z,99467.30
2018-12-02T21:26:25.310Z,99467.30
2018-12-02T21:28:53.944Z,99470.75
2018-12-02T21:31:22.511Z,99468.13
2018-12-02T21:33:51.099Z,99461.95
2018-12-02T21:36:19.740Z,99462.81
2018-12-02T21:38:48.216Z,99461.65
2018-12-02T21:41:21.757Z,99468.61
2018-12-02T21:43:50.234Z,99459.86
2018-12-02T21:46:18.676Z,99462.97
2018-12-02T21:48:48.126Z,99462.97
2018-12-02T21:51:18.717Z,99467.35
2018-12-02T21:53:47.268Z,99463.41
2018-12-02T21:56:19.738Z,99464.28
2018-12-02T21:58:48.244Z,99460.78
2018-12-02T22:01:16.827Z,99457.17
2018-12-02T22:03:45.501Z,99458.55
2018-12-02T22:06:13.943Z,99455.47
2018-12-02T22:08:42.513Z,99454.94
2018-12-02T22:11:10.936Z,99453.62
2018-12-02T22:13:43.496Z,99453.14
2018-12-02T22:16:16.276Z,99456.25
2018-12-02T22:18:45.786Z,99457.56
2018-12-02T22:23:55.094Z,99460.13
2018-12-02T22:26:23.623Z,99450.51
2018-12-02T22:28:57.461Z,99447.44
2018-12-02T22:31:25.500Z,99452.69
2018-12-02T22:33:54.547Z,99442.72
2018-12-02T22:36:22.983Z,99430.52
2018-12-02T22:38:51.544Z,99447.59
2018-12-02T22:41:20.017Z,99452.84
2018-12-02T22:43:48.431Z,99451.05
2018-12-02T22:46:16.876Z,99444.96
2018-12-02T22:48:45.352Z,99444.96
2018-12-02T22:51:13.857Z,99448.91
2018-12-02T22:53:42.325Z,99454.16
2018-12-02T22:56:10.888Z,99455.91
2018-12-02T22:58:39.351Z,99470.07
2018-12-02T23:01:20.081Z,99466.64
2018-12-02T23:03:53.550Z,99470.19
2018-12-02T23:06:22.076Z,99457.44
2018-12-02T23:08:50.620Z,99460.16
2018-12-02T23:11:19.074Z,99468.04
2018-12-02T23:13:47.490Z,99473.41
2018-12-02T23:16:16.043Z,99459.44
2018-12-02T23:18:44.450Z,99449.47
2018-12-02T23:21:12.992Z,99445.20
2018-12-02T23:23:41.388Z,99427.36
2018-12-02T23:26:09.799Z,99424.73
2018-12-02T23:28:38.307Z,99428.67
2018-12-02T23:31:06.715Z,99426.88
2018-12-02T23:33:35.164Z,99439.17
2018-12-02T23:36:03.595Z,99430.91
2018-12-02T23:38:32.067Z,99422.31
2018-12-02T23:41:00.616Z,99422.37
2018-12-02T23:43:29.151Z,99424.94
2018-12-02T23:45:57.544Z,99428.87
2018-12-02T23:48:26.040Z,99418.53
2018-12-02T23:50:54.464Z,99419.13
2018-12-02T23:53:40.715Z,99414.80
2018-12-02T23:56:09.130Z,99419.72
2018-12-02T23:58:37.678Z,99418.46
